Amherst, New York
Current Conditions -  °F | °C
As of 11:54 PM on Friday 19 Dec 2014 (Local Time) from KBUF Reporting Station
Overcast Overcast  
Wind Chill: 24°   Ceiling: 2000
Heat Index: 29°   Visibility: 10mi
Dew Point: 21°   Wind: 5mph
Humidity: 72%   Direction: 290°WNW
Pressure: 30.25"   Gusts: NA
Location:  43.0271°N, 78.7597°W
Report Text: KBUF 200454Z 29004KT 10SM OVC020 M02/M06 A3025 RMK AO2 SLP255 T10171061 410171039
Loading
Personal Weather Stations






























Interactive Weather Map New forecast layout! Learn more

10-Day Weather Forecast

Advertisements
Track Severe Weather on mobile